sensor_id;sensor_type;location;lat;lon;timestamp;P1;durP1;ratioP1;P2;durP2;ratioP2
22614;SDS011;11474;50.790;0.298;2023-02-12T00:02:00;35.50;;;19.15;;
22614;SDS011;11474;50.790;0.298;2023-02-12T00:04:26;39.78;;;19.90;;
22614;SDS011;11474;50.790;0.298;2023-02-12T00:06:52;31.73;;;17.30;;
22614;SDS011;11474;50.790;0.298;2023-02-12T00:09:22;35.95;;;19.17;;
22614;SDS011;11474;50.790;0.298;2023-02-12T00:11:48;31.88;;;18.70;;
22614;SDS011;11474;50.790;0.298;2023-02-12T00:14:14;36.80;;;20.73;;
22614;SDS011;11474;50.790;0.298;2023-02-12T00:16:40;34.60;;;19.80;;
22614;SDS011;11474;50.790;0.298;2023-02-12T00:19:06;35.25;;;18.58;;
22614;SDS011;11474;50.790;0.298;2023-02-12T00:21:42;34.38;;;19.77;;
22614;SDS011;11474;50.790;0.298;2023-02-12T00:24:08;33.17;;;19.30;;
22614;SDS011;11474;50.790;0.298;2023-02-12T00:26:34;31.65;;;17.58;;
22614;SDS011;11474;50.790;0.298;2023-02-12T00:29:00;34.17;;;19.45;;
22614;SDS011;11474;50.790;0.298;2023-02-12T00:31:27;32.72;;;18.58;;
22614;SDS011;11474;50.790;0.298;2023-02-12T00:33:54;34.27;;;19.40;;
22614;SDS011;11474;50.790;0.298;2023-02-12T00:36:21;30.10;;;18.67;;
22614;SDS011;11474;50.790;0.298;2023-02-12T00:38:49;36.55;;;20.58;;
22614;SDS011;11474;50.790;0.298;2023-02-12T00:41:15;33.80;;;18.67;;
22614;SDS011;11474;50.790;0.298;2023-02-12T00:43:41;35.88;;;18.70;;
22614;SDS011;11474;50.790;0.298;2023-02-12T00:46:08;34.83;;;18.83;;
22614;SDS011;11474;50.790;0.298;2023-02-12T00:48:34;32.58;;;18.85;;
22614;SDS011;11474;50.790;0.298;2023-02-12T00:51:00;33.65;;;18.80;;
22614;SDS011;11474;50.790;0.298;2023-02-12T00:53:26;34.22;;;18.55;;
22614;SDS011;11474;50.790;0.298;2023-02-12T00:55:53;31.25;;;17.65;;
22614;SDS011;11474;50.790;0.298;2023-02-12T00:58:19;33.65;;;18.73;;
22614;SDS011;11474;50.790;0.298;2023-02-12T01:00:45;34.78;;;19.92;;
22614;SDS011;11474;50.790;0.298;2023-02-12T01:03:13;30.55;;;19.30;;
22614;SDS011;11474;50.790;0.298;2023-02-12T01:05:39;35.20;;;19.58;;
22614;SDS011;11474;50.790;0.298;2023-02-12T01:08:05;34.45;;;18.77;;
22614;SDS011;11474;50.790;0.298;2023-02-12T01:10:31;31.20;;;18.67;;
22614;SDS011;11474;50.790;0.298;2023-02-12T01:12:57;34.10;;;18.60;;
22614;SDS011;11474;50.790;0.298;2023-02-12T01:15:23;32.20;;;18.57;;
22614;SDS011;11474;50.790;0.298;2023-02-12T01:17:50;30.27;;;17.67;;
22614;SDS011;11474;50.790;0.298;2023-02-12T01:20:17;34.42;;;18.55;;
22614;SDS011;11474;50.790;0.298;2023-02-12T01:22:44;36.22;;;18.92;;
22614;SDS011;11474;50.790;0.298;2023-02-12T01:25:10;33.42;;;19.50;;
22614;SDS011;11474;50.790;0.298;2023-02-12T01:27:36;30.95;;;18.75;;
22614;SDS011;11474;50.790;0.298;2023-02-12T01:30:03;32.58;;;18.17;;
22614;SDS011;11474;50.790;0.298;2023-02-12T01:32:29;33.57;;;18.87;;
22614;SDS011;11474;50.790;0.298;2023-02-12T01:34:55;33.10;;;17.90;;
22614;SDS011;11474;50.790;0.298;2023-02-12T01:37:21;29.83;;;16.05;;
22614;SDS011;11474;50.790;0.298;2023-02-12T01:39:47;34.38;;;18.23;;
22614;SDS011;11474;50.790;0.298;2023-02-12T01:42:14;27.08;;;17.23;;
22614;SDS011;11474;50.790;0.298;2023-02-12T01:44:44;27.85;;;16.77;;
22614;SDS011;11474;50.790;0.298;2023-02-12T01:47:10;29.17;;;17.10;;
22614;SDS011;11474;50.790;0.298;2023-02-12T01:49:40;29.40;;;16.80;;
22614;SDS011;11474;50.790;0.298;2023-02-12T01:52:20;30.95;;;17.23;;
22614;SDS011;11474;50.790;0.298;2023-02-12T01:54:49;29.50;;;16.85;;
22614;SDS011;11474;50.790;0.298;2023-02-12T01:57:15;29.33;;;16.98;;
22614;SDS011;11474;50.790;0.298;2023-02-12T01:59:42;33.38;;;18.58;;
22614;SDS011;11474;50.790;0.298;2023-02-12T02:02:08;31.83;;;18.37;;
22614;SDS011;11474;50.790;0.298;2023-02-12T02:04:39;31.60;;;18.25;;
22614;SDS011;11474;50.790;0.298;2023-02-12T02:07:06;29.17;;;17.70;;
22614;SDS011;11474;50.790;0.298;2023-02-12T02:09:33;32.85;;;18.05;;
22614;SDS011;11474;50.790;0.298;2023-02-12T02:12:00;33.72;;;19.00;;
22614;SDS011;11474;50.790;0.298;2023-02-12T02:14:45;34.33;;;18.35;;
22614;SDS011;11474;50.790;0.298;2023-02-12T02:17:15;28.50;;;16.30;;
22614;SDS011;11474;50.790;0.298;2023-02-12T02:19:48;30.10;;;17.85;;
22614;SDS011;11474;50.790;0.298;2023-02-12T02:30:14;33.60;;;20.30;;
22614;SDS011;11474;50.790;0.298;2023-02-12T02:32:52;39.13;;;20.60;;
22614;SDS011;11474;50.790;0.298;2023-02-12T02:35:25;39.00;;;20.40;;
22614;SDS011;11474;50.790;0.298;2023-02-12T02:40:32;39.97;;;19.38;;
22614;SDS011;11474;50.790;0.298;2023-02-12T02:43:01;35.23;;;18.97;;
22614;SDS011;11474;50.790;0.298;2023-02-12T02:45:32;36.80;;;18.45;;
22614;SDS011;11474;50.790;0.298;2023-02-12T02:48:03;34.15;;;18.90;;
22614;SDS011;11474;50.790;0.298;2023-02-12T02:50:31;37.30;;;18.53;;
22614;SDS011;11474;50.790;0.298;2023-02-12T02:53:04;33.20;;;18.63;;
22614;SDS011;11474;50.790;0.298;2023-02-12T02:55:32;34.40;;;18.83;;
22614;SDS011;11474;50.790;0.298;2023-02-12T02:58:02;32.00;;;17.10;;
22614;SDS011;11474;50.790;0.298;2023-02-12T03:00:32;33.22;;;18.73;;
22614;SDS011;11474;50.790;0.298;2023-02-12T03:03:06;32.00;;;18.13;;
22614;SDS011;11474;50.790;0.298;2023-02-12T03:05:36;33.53;;;17.90;;
22614;SDS011;11474;50.790;0.298;2023-02-12T03:08:06;29.73;;;16.02;;
22614;SDS011;11474;50.790;0.298;2023-02-12T03:10:35;24.13;;;14.25;;
22614;SDS011;11474;50.790;0.298;2023-02-12T03:13:07;19.42;;;11.45;;
22614;SDS011;11474;50.790;0.298;2023-02-12T03:15:41;19.15;;;10.70;;
22614;SDS011;11474;50.790;0.298;2023-02-12T03:18:10;21.23;;;11.45;;
22614;SDS011;11474;50.790;0.298;2023-02-12T03:20:41;17.73;;;11.10;;
22614;SDS011;11474;50.790;0.298;2023-02-12T03:23:09;19.65;;;10.73;;
22614;SDS011;11474;50.790;0.298;2023-02-12T03:25:48;17.77;;;9.90;;
22614;SDS011;11474;50.790;0.298;2023-02-12T03:28:19;18.30;;;10.38;;
22614;SDS011;11474;50.790;0.298;2023-02-12T03:30:57;17.95;;;10.13;;
22614;SDS011;11474;50.790;0.298;2023-02-12T03:35:58;20.15;;;11.63;;
22614;SDS011;11474;50.790;0.298;2023-02-12T03:38:35;21.00;;;11.10;;
22614;SDS011;11474;50.790;0.298;2023-02-12T03:41:23;20.63;;;10.15;;
22614;SDS011;11474;50.790;0.298;2023-02-12T03:43:52;18.02;;;8.95;;
22614;SDS011;11474;50.790;0.298;2023-02-12T03:46:27;17.13;;;9.05;;
22614;SDS011;11474;50.790;0.298;2023-02-12T03:49:03;16.02;;;8.20;;
22614;SDS011;11474;50.790;0.298;2023-02-12T03:53:57;18.13;;;8.45;;
22614;SDS011;11474;50.790;0.298;2023-02-12T03:56:29;15.07;;;8.18;;
22614;SDS011;11474;50.790;0.298;2023-02-12T03:58:57;13.52;;;8.00;;
22614;SDS011;11474;50.790;0.298;2023-02-12T04:01:23;16.55;;;7.90;;
22614;SDS011;11474;50.790;0.298;2023-02-12T04:03:49;20.98;;;8.88;;
22614;SDS011;11474;50.790;0.298;2023-02-12T04:06:19;15.77;;;8.32;;
22614;SDS011;11474;50.790;0.298;2023-02-12T04:08:46;15.50;;;8.60;;
22614;SDS011;11474;50.790;0.298;2023-02-12T04:11:16;17.55;;;8.63;;
22614;SDS011;11474;50.790;0.298;2023-02-12T04:19:16;16.67;;;9.80;;
22614;SDS011;11474;50.790;0.298;2023-02-12T04:24:18;18.73;;;9.98;;
22614;SDS011;11474;50.790;0.298;2023-02-12T04:26:56;18.50;;;9.75;;
22614;SDS011;11474;50.790;0.298;2023-02-12T04:29:47;15.10;;;8.50;;
22614;SDS011;11474;50.790;0.298;2023-02-12T04:34:38;12.00;;;7.82;;
22614;SDS011;11474;50.790;0.298;2023-02-12T04:39:36;11.80;;;7.68;;
22614;SDS011;11474;50.790;0.298;2023-02-12T04:42:03;12.57;;;7.93;;
22614;SDS011;11474;50.790;0.298;2023-02-12T04:44:31;13.30;;;7.63;;
22614;SDS011;11474;50.790;0.298;2023-02-12T04:46:58;16.58;;;7.97;;
22614;SDS011;11474;50.790;0.298;2023-02-12T04:49:24;15.63;;;7.70;;
22614;SDS011;11474;50.790;0.298;2023-02-12T04:51:50;12.48;;;8.07;;
22614;SDS011;11474;50.790;0.298;2023-02-12T04:54:17;12.93;;;7.38;;
22614;SDS011;11474;50.790;0.298;2023-02-12T04:56:43;11.07;;;6.85;;
22614;SDS011;11474;50.790;0.298;2023-02-12T04:59:10;9.02;;;5.47;;
22614;SDS011;11474;50.790;0.298;2023-02-12T05:01:37;10.90;;;6.40;;
22614;SDS011;11474;50.790;0.298;2023-02-12T05:04:04;13.35;;;6.90;;
22614;SDS011;11474;50.790;0.298;2023-02-12T05:06:30;10.73;;;6.65;;
22614;SDS011;11474;50.790;0.298;2023-02-12T05:08:59;11.05;;;6.75;;
22614;SDS011;11474;50.790;0.298;2023-02-12T05:11:25;14.52;;;7.10;;
22614;SDS011;11474;50.790;0.298;2023-02-12T05:13:51;12.50;;;7.72;;
22614;SDS011;11474;50.790;0.298;2023-02-12T05:16:18;13.32;;;7.72;;
22614;SDS011;11474;50.790;0.298;2023-02-12T05:18:44;12.38;;;5.70;;
22614;SDS011;11474;50.790;0.298;2023-02-12T05:21:10;12.63;;;6.68;;
22614;SDS011;11474;50.790;0.298;2023-02-12T05:23:36;13.23;;;6.75;;
22614;SDS011;11474;50.790;0.298;2023-02-12T05:26:04;13.02;;;7.43;;
22614;SDS011;11474;50.790;0.298;2023-02-12T05:28:30;15.07;;;8.37;;
22614;SDS011;11474;50.790;0.298;2023-02-12T05:31:00;13.02;;;8.05;;
22614;SDS011;11474;50.790;0.298;2023-02-12T05:33:27;17.02;;;8.48;;
22614;SDS011;11474;50.790;0.298;2023-02-12T05:35:53;15.30;;;8.82;;
22614;SDS011;11474;50.790;0.298;2023-02-12T05:38:19;15.63;;;8.82;;
22614;SDS011;11474;50.790;0.298;2023-02-12T05:40:45;15.43;;;8.93;;
22614;SDS011;11474;50.790;0.298;2023-02-12T05:43:11;16.98;;;9.35;;
22614;SDS011;11474;50.790;0.298;2023-02-12T05:45:37;18.95;;;9.60;;
22614;SDS011;11474;50.790;0.298;2023-02-12T05:48:05;19.65;;;9.77;;
22614;SDS011;11474;50.790;0.298;2023-02-12T05:50:31;18.50;;;9.88;;
22614;SDS011;11474;50.790;0.298;2023-02-12T05:53:01;17.10;;;9.55;;
22614;SDS011;11474;50.790;0.298;2023-02-12T05:55:27;17.67;;;9.68;;
22614;SDS011;11474;50.790;0.298;2023-02-12T05:57:53;15.68;;;9.00;;
22614;SDS011;11474;50.790;0.298;2023-02-12T06:00:19;17.42;;;8.52;;
22614;SDS011;11474;50.790;0.298;2023-02-12T06:02:45;16.48;;;9.27;;
22614;SDS011;11474;50.790;0.298;2023-02-12T06:05:11;18.30;;;8.17;;
22614;SDS011;11474;50.790;0.298;2023-02-12T06:07:37;14.05;;;8.80;;
22614;SDS011;11474;50.790;0.298;2023-02-12T06:10:04;14.67;;;7.77;;
22614;SDS011;11474;50.790;0.298;2023-02-12T06:12:30;11.82;;;7.18;;
22614;SDS011;11474;50.790;0.298;2023-02-12T06:14:56;12.70;;;6.45;;
22614;SDS011;11474;50.790;0.298;2023-02-12T06:17:22;9.63;;;5.25;;
22614;SDS011;11474;50.790;0.298;2023-02-12T06:19:48;10.20;;;4.47;;
22614;SDS011;11474;50.790;0.298;2023-02-12T06:22:14;8.80;;;4.60;;
22614;SDS011;11474;50.790;0.298;2023-02-12T06:24:40;9.18;;;4.60;;
22614;SDS011;11474;50.790;0.298;2023-02-12T06:27:06;7.45;;;4.47;;
22614;SDS011;11474;50.790;0.298;2023-02-12T06:29:32;10.90;;;4.50;;
22614;SDS011;11474;50.790;0.298;2023-02-12T06:31:58;9.00;;;4.90;;
22614;SDS011;11474;50.790;0.298;2023-02-12T06:34:24;11.93;;;5.10;;
22614;SDS011;11474;50.790;0.298;2023-02-12T06:36:50;11.25;;;4.57;;
22614;SDS011;11474;50.790;0.298;2023-02-12T06:39:16;13.93;;;4.70;;
22614;SDS011;11474;50.790;0.298;2023-02-12T06:41:42;8.13;;;3.50;;
22614;SDS011;11474;50.790;0.298;2023-02-12T06:44:08;4.97;;;3.20;;
22614;SDS011;11474;50.790;0.298;2023-02-12T06:46:35;8.30;;;3.63;;
22614;SDS011;11474;50.790;0.298;2023-02-12T06:49:01;7.50;;;3.60;;
22614;SDS011;11474;50.790;0.298;2023-02-12T06:51:27;6.28;;;3.22;;
22614;SDS011;11474;50.790;0.298;2023-02-12T06:53:55;6.85;;;3.80;;
22614;SDS011;11474;50.790;0.298;2023-02-12T06:56:22;7.85;;;3.90;;
22614;SDS011;11474;50.790;0.298;2023-02-12T06:58:53;7.47;;;4.10;;
22614;SDS011;11474;50.790;0.298;2023-02-12T07:01:20;6.45;;;3.28;;
22614;SDS011;11474;50.790;0.298;2023-02-12T07:03:48;5.57;;;3.13;;
22614;SDS011;11474;50.790;0.298;2023-02-12T07:06:15;7.05;;;3.25;;
22614;SDS011;11474;50.790;0.298;2023-02-12T07:08:42;5.97;;;2.70;;
22614;SDS011;11474;50.790;0.298;2023-02-12T07:11:08;4.25;;;2.33;;
22614;SDS011;11474;50.790;0.298;2023-02-12T07:13:34;5.90;;;2.87;;
22614;SDS011;11474;50.790;0.298;2023-02-12T07:16:07;6.50;;;2.58;;
22614;SDS011;11474;50.790;0.298;2023-02-12T07:18:33;5.80;;;2.53;;
22614;SDS011;11474;50.790;0.298;2023-02-12T07:21:00;4.03;;;2.10;;
22614;SDS011;11474;50.790;0.298;2023-02-12T07:23:26;3.42;;;1.80;;
22614;SDS011;11474;50.790;0.298;2023-02-12T07:25:59;2.65;;;1.75;;
22614;SDS011;11474;50.790;0.298;2023-02-12T07:28:25;3.50;;;1.80;;
22614;SDS011;11474;50.790;0.298;2023-02-12T07:30:51;2.28;;;1.92;;
22614;SDS011;11474;50.790;0.298;2023-02-12T07:33:18;3.75;;;2.08;;
22614;SDS011;11474;50.790;0.298;2023-02-12T07:35:44;7.13;;;2.35;;
22614;SDS011;11474;50.790;0.298;2023-02-12T07:38:10;5.03;;;2.00;;
22614;SDS011;11474;50.790;0.298;2023-02-12T07:40:36;3.35;;;2.00;;
22614;SDS011;11474;50.790;0.298;2023-02-12T07:43:03;5.20;;;2.35;;
22614;SDS011;11474;50.790;0.298;2023-02-12T07:45:29;3.92;;;2.20;;
22614;SDS011;11474;50.790;0.298;2023-02-12T07:47:55;4.57;;;2.60;;
22614;SDS011;11474;50.790;0.298;2023-02-12T07:50:21;5.35;;;1.90;;
22614;SDS011;11474;50.790;0.298;2023-02-12T07:52:50;5.77;;;2.20;;
22614;SDS011;11474;50.790;0.298;2023-02-12T07:55:16;5.57;;;2.35;;
22614;SDS011;11474;50.790;0.298;2023-02-12T07:57:42;4.93;;;2.22;;
22614;SDS011;11474;50.790;0.298;2023-02-12T08:00:08;5.90;;;2.70;;
22614;SDS011;11474;50.790;0.298;2023-02-12T08:02:34;5.80;;;2.58;;
22614;SDS011;11474;50.790;0.298;2023-02-12T08:05:00;4.77;;;2.53;;
22614;SDS011;11474;50.790;0.298;2023-02-12T08:07:26;6.05;;;2.85;;
22614;SDS011;11474;50.790;0.298;2023-02-12T08:09:52;4.60;;;2.57;;
22614;SDS011;11474;50.790;0.298;2023-02-12T08:12:18;6.03;;;2.88;;
22614;SDS011;11474;50.790;0.298;2023-02-12T08:14:44;9.80;;;3.60;;
22614;SDS011;11474;50.790;0.298;2023-02-12T08:17:10;5.97;;;3.50;;
22614;SDS011;11474;50.790;0.298;2023-02-12T08:19:36;5.25;;;3.10;;
22614;SDS011;11474;50.790;0.298;2023-02-12T08:22:03;6.13;;;3.45;;
22614;SDS011;11474;50.790;0.298;2023-02-12T08:24:30;7.78;;;3.55;;
22614;SDS011;11474;50.790;0.298;2023-02-12T08:26:56;7.28;;;3.80;;
22614;SDS011;11474;50.790;0.298;2023-02-12T08:29:26;8.18;;;3.60;;
22614;SDS011;11474;50.790;0.298;2023-02-12T08:31:54;6.13;;;3.10;;
22614;SDS011;11474;50.790;0.298;2023-02-12T08:34:21;5.53;;;3.10;;
22614;SDS011;11474;50.790;0.298;2023-02-12T08:36:48;7.13;;;3.50;;
22614;SDS011;11474;50.790;0.298;2023-02-12T08:39:15;5.67;;;2.90;;
22614;SDS011;11474;50.790;0.298;2023-02-12T08:41:41;7.35;;;3.30;;
22614;SDS011;11474;50.790;0.298;2023-02-12T08:44:07;6.40;;;3.28;;
22614;SDS011;11474;50.790;0.298;2023-02-12T08:46:35;7.03;;;3.70;;
22614;SDS011;11474;50.790;0.298;2023-02-12T08:49:02;7.13;;;3.33;;
22614;SDS011;11474;50.790;0.298;2023-02-12T08:51:29;7.65;;;3.45;;
22614;SDS011;11474;50.790;0.298;2023-02-12T08:53:57;6.40;;;3.40;;
22614;SDS011;11474;50.790;0.298;2023-02-12T08:56:24;4.13;;;3.00;;
22614;SDS011;11474;50.790;0.298;2023-02-12T08:58:50;7.30;;;3.10;;
22614;SDS011;11474;50.790;0.298;2023-02-12T09:01:17;5.88;;;2.60;;
22614;SDS011;11474;50.790;0.298;2023-02-12T09:03:44;5.55;;;3.15;;
22614;SDS011;11474;50.790;0.298;2023-02-12T09:06:11;5.60;;;3.15;;
22614;SDS011;11474;50.790;0.298;2023-02-12T09:08:37;5.95;;;3.10;;
22614;SDS011;11474;50.790;0.298;2023-02-12T09:11:04;7.22;;;3.40;;
22614;SDS011;11474;50.790;0.298;2023-02-12T09:13:30;4.80;;;3.17;;
22614;SDS011;11474;50.790;0.298;2023-02-12T09:15:58;6.38;;;2.70;;
22614;SDS011;11474;50.790;0.298;2023-02-12T09:18:25;5.13;;;2.70;;
22614;SDS011;11474;50.790;0.298;2023-02-12T09:20:51;5.88;;;2.67;;
22614;SDS011;11474;50.790;0.298;2023-02-12T09:23:17;6.55;;;2.85;;
22614;SDS011;11474;50.790;0.298;2023-02-12T09:25:43;7.82;;;3.38;;
22614;SDS011;11474;50.790;0.298;2023-02-12T09:28:11;8.65;;;3.45;;
22614;SDS011;11474;50.790;0.298;2023-02-12T09:30:37;8.37;;;4.17;;
22614;SDS011;11474;50.790;0.298;2023-02-12T09:33:04;9.23;;;5.00;;
22614;SDS011;11474;50.790;0.298;2023-02-12T09:35:32;10.57;;;5.85;;
22614;SDS011;11474;50.790;0.298;2023-02-12T09:37:59;8.65;;;4.97;;
22614;SDS011;11474;50.790;0.298;2023-02-12T09:43:06;9.77;;;5.35;;
22614;SDS011;11474;50.790;0.298;2023-02-12T09:45:44;9.95;;;4.95;;
22614;SDS011;11474;50.790;0.298;2023-02-12T09:48:27;10.10;;;4.95;;
22614;SDS011;11474;50.790;0.298;2023-02-12T09:50:58;7.50;;;4.25;;
22614;SDS011;11474;50.790;0.298;2023-02-12T09:53:26;9.70;;;5.07;;
22614;SDS011;11474;50.790;0.298;2023-02-12T09:55:53;9.93;;;4.90;;
22614;SDS011;11474;50.790;0.298;2023-02-12T09:58:32;10.10;;;4.80;;
22614;SDS011;11474;50.790;0.298;2023-02-12T10:01:00;9.80;;;5.07;;
22614;SDS011;11474;50.790;0.298;2023-02-12T10:03:27;8.43;;;4.97;;
22614;SDS011;11474;50.790;0.298;2023-02-12T10:06:00;8.43;;;4.65;;
22614;SDS011;11474;50.790;0.298;2023-02-12T10:17:07;8.05;;;4.95;;
22614;SDS011;11474;50.790;0.298;2023-02-12T10:19:51;9.32;;;4.85;;
22614;SDS011;11474;50.790;0.298;2023-02-12T10:25:40;8.10;;;4.70;;
22614;SDS011;11474;50.790;0.298;2023-02-12T10:28:13;9.00;;;4.80;;
22614;SDS011;11474;50.790;0.298;2023-02-12T10:30:52;9.70;;;4.93;;
22614;SDS011;11474;50.790;0.298;2023-02-12T10:33:34;10.02;;;5.25;;
22614;SDS011;11474;50.790;0.298;2023-02-12T10:36:03;10.82;;;5.07;;
22614;SDS011;11474;50.790;0.298;2023-02-12T10:38:33;9.32;;;5.13;;
22614;SDS011;11474;50.790;0.298;2023-02-12T10:41:00;11.27;;;5.20;;
22614;SDS011;11474;50.790;0.298;2023-02-12T10:43:27;10.38;;;5.22;;
22614;SDS011;11474;50.790;0.298;2023-02-12T10:45:53;10.93;;;5.18;;
22614;SDS011;11474;50.790;0.298;2023-02-12T10:48:29;10.25;;;5.13;;
22614;SDS011;11474;50.790;0.298;2023-02-12T10:53:30;10.63;;;5.18;;
22614;SDS011;11474;50.790;0.298;2023-02-12T10:56:11;9.90;;;5.32;;
22614;SDS011;11474;50.790;0.298;2023-02-12T10:58:39;9.85;;;4.78;;
22614;SDS011;11474;50.790;0.298;2023-02-12T11:01:13;12.13;;;5.43;;
22614;SDS011;11474;50.790;0.298;2023-02-12T11:03:41;10.70;;;4.85;;
22614;SDS011;11474;50.790;0.298;2023-02-12T11:06:11;9.70;;;5.22;;
22614;SDS011;11474;50.790;0.298;2023-02-12T11:08:37;13.10;;;4.68;;
22614;SDS011;11474;50.790;0.298;2023-02-12T11:11:15;10.85;;;4.97;;
22614;SDS011;11474;50.790;0.298;2023-02-12T11:14:02;10.38;;;4.78;;
22614;SDS011;11474;50.790;0.298;2023-02-12T11:16:29;10.05;;;4.97;;
22614;SDS011;11474;50.790;0.298;2023-02-12T11:18:57;9.57;;;5.30;;
22614;SDS011;11474;50.790;0.298;2023-02-12T11:21:24;13.07;;;5.28;;
22614;SDS011;11474;50.790;0.298;2023-02-12T11:23:50;12.27;;;5.68;;
22614;SDS011;11474;50.790;0.298;2023-02-12T11:31:43;13.48;;;6.35;;
22614;SDS011;11474;50.790;0.298;2023-02-12T11:34:23;12.05;;;5.20;;
22614;SDS011;11474;50.790;0.298;2023-02-12T11:36:51;11.25;;;6.13;;
22614;SDS011;11474;50.790;0.298;2023-02-12T11:39:34;11.93;;;5.60;;
22614;SDS011;11474;50.790;0.298;2023-02-12T11:44:34;11.75;;;5.57;;
22614;SDS011;11474;50.790;0.298;2023-02-12T11:47:02;13.40;;;5.90;;
22614;SDS011;11474;50.790;0.298;2023-02-12T11:49:33;13.30;;;5.57;;
22614;SDS011;11474;50.790;0.298;2023-02-12T11:52:02;12.70;;;5.70;;
22614;SDS011;11474;50.790;0.298;2023-02-12T11:54:29;13.00;;;6.38;;
22614;SDS011;11474;50.790;0.298;2023-02-12T11:56:58;15.35;;;6.80;;
22614;SDS011;11474;50.790;0.298;2023-02-12T12:01:58;14.57;;;6.43;;
22614;SDS011;11474;50.790;0.298;2023-02-12T12:04:25;16.70;;;7.20;;
22614;SDS011;11474;50.790;0.298;2023-02-12T12:06:54;14.20;;;7.25;;
22614;SDS011;11474;50.790;0.298;2023-02-12T12:12:10;15.40;;;7.90;;
22614;SDS011;11474;50.790;0.298;2023-02-12T12:14:39;16.60;;;7.70;;
22614;SDS011;11474;50.790;0.298;2023-02-12T12:17:37;15.88;;;7.80;;
22614;SDS011;11474;50.790;0.298;2023-02-12T12:20:24;14.73;;;7.53;;
22614;SDS011;11474;50.790;0.298;2023-02-12T12:23:05;17.60;;;8.35;;
22614;SDS011;11474;50.790;0.298;2023-02-12T12:25:42;14.88;;;8.05;;
22614;SDS011;11474;50.790;0.298;2023-02-12T12:41:22;20.27;;;8.45;;
22614;SDS011;11474;50.790;0.298;2023-02-12T12:44:12;15.40;;;8.90;;
22614;SDS011;11474;50.790;0.298;2023-02-12T12:54:38;17.35;;;8.55;;
22614;SDS011;11474;50.790;0.298;2023-02-12T13:05:10;20.60;;;9.43;;
22614;SDS011;11474;50.790;0.298;2023-02-12T13:15:27;24.33;;;10.23;;
22614;SDS011;11474;50.790;0.298;2023-02-12T13:20:35;26.73;;;10.20;;
22614;SDS011;11474;50.790;0.298;2023-02-12T13:25:40;27.52;;;10.90;;
22614;SDS011;11474;50.790;0.298;2023-02-12T13:28:11;29.10;;;10.95;;
22614;SDS011;11474;50.790;0.298;2023-02-12T13:30:41;33.55;;;13.02;;
22614;SDS011;11474;50.790;0.298;2023-02-12T13:33:14;33.10;;;12.55;;
22614;SDS011;11474;50.790;0.298;2023-02-12T13:35:44;29.67;;;12.93;;
22614;SDS011;11474;50.790;0.298;2023-02-12T13:38:14;31.73;;;13.27;;
22614;SDS011;11474;50.790;0.298;2023-02-12T13:40:42;37.08;;;12.55;;
22614;SDS011;11474;50.790;0.298;2023-02-12T14:03:28;33.22;;;14.80;;
22614;SDS011;11474;50.790;0.298;2023-02-12T14:06:08;31.90;;;14.30;;
22614;SDS011;11474;50.790;0.298;2023-02-12T14:08:36;37.97;;;16.52;;
22614;SDS011;11474;50.790;0.298;2023-02-12T14:11:06;31.73;;;14.98;;
22614;SDS011;11474;50.790;0.298;2023-02-12T14:13:35;36.17;;;15.50;;
22614;SDS011;11474;50.790;0.298;2023-02-12T14:16:20;36.35;;;15.30;;
22614;SDS011;11474;50.790;0.298;2023-02-12T14:21:40;35.58;;;15.45;;
22614;SDS011;11474;50.790;0.298;2023-02-12T14:26:50;30.00;;;14.05;;
22614;SDS011;11474;50.790;0.298;2023-02-12T14:29:18;29.90;;;14.77;;
22614;SDS011;11474;50.790;0.298;2023-02-12T14:31:48;34.03;;;15.90;;
22614;SDS011;11474;50.790;0.298;2023-02-12T14:36:42;37.03;;;15.82;;
22614;SDS011;11474;50.790;0.298;2023-02-12T14:41:51;33.20;;;17.43;;
22614;SDS011;11474;50.790;0.298;2023-02-12T14:49:24;37.40;;;18.38;;
22614;SDS011;11474;50.790;0.298;2023-02-12T14:54:44;33.75;;;19.05;;
22614;SDS011;11474;50.790;0.298;2023-02-12T14:57:19;34.30;;;19.38;;
22614;SDS011;11474;50.790;0.298;2023-02-12T14:59:46;35.20;;;19.05;;
22614;SDS011;11474;50.790;0.298;2023-02-12T15:02:16;32.75;;;19.20;;
22614;SDS011;11474;50.790;0.298;2023-02-12T15:04:45;28.98;;;18.10;;
22614;SDS011;11474;50.790;0.298;2023-02-12T15:07:16;30.23;;;16.92;;
22614;SDS011;11474;50.790;0.298;2023-02-12T15:09:49;27.23;;;16.27;;
22614;SDS011;11474;50.790;0.298;2023-02-12T15:12:18;27.10;;;16.40;;
22614;SDS011;11474;50.790;0.298;2023-02-12T15:14:52;24.50;;;14.20;;
22614;SDS011;11474;50.790;0.298;2023-02-12T15:17:20;25.65;;;14.77;;
22614;SDS011;11474;50.790;0.298;2023-02-12T15:22:15;21.30;;;12.68;;
22614;SDS011;11474;50.790;0.298;2023-02-12T15:24:43;24.73;;;13.85;;
22614;SDS011;11474;50.790;0.298;2023-02-12T15:27:11;23.02;;;13.38;;
22614;SDS011;11474;50.790;0.298;2023-02-12T15:29:40;22.67;;;13.27;;
22614;SDS011;11474;50.790;0.298;2023-02-12T15:32:08;25.80;;;14.40;;
22614;SDS011;11474;50.790;0.298;2023-02-12T15:34:40;27.95;;;14.75;;
22614;SDS011;11474;50.790;0.298;2023-02-12T15:37:07;25.88;;;14.05;;
22614;SDS011;11474;50.790;0.298;2023-02-12T15:39:39;25.17;;;14.90;;
22614;SDS011;11474;50.790;0.298;2023-02-12T15:42:27;22.98;;;14.73;;
22614;SDS011;11474;50.790;0.298;2023-02-12T15:47:35;23.73;;;13.10;;
22614;SDS011;11474;50.790;0.298;2023-02-12T15:50:01;20.17;;;10.98;;
22614;SDS011;11474;50.790;0.298;2023-02-12T15:52:30;19.83;;;9.80;;
22614;SDS011;11474;50.790;0.298;2023-02-12T15:54:59;17.77;;;10.10;;
22614;SDS011;11474;50.790;0.298;2023-02-12T15:57:27;18.13;;;10.30;;
22614;SDS011;11474;50.790;0.298;2023-02-12T15:59:55;20.17;;;11.13;;
22614;SDS011;11474;50.790;0.298;2023-02-12T16:02:24;23.33;;;11.85;;
22614;SDS011;11474;50.790;0.298;2023-02-12T16:04:52;20.42;;;11.50;;
22614;SDS011;11474;50.790;0.298;2023-02-12T16:07:19;22.02;;;11.82;;
22614;SDS011;11474;50.790;0.298;2023-02-12T16:09:45;23.55;;;11.82;;
22614;SDS011;11474;50.790;0.298;2023-02-12T16:12:12;22.80;;;11.67;;
22614;SDS011;11474;50.790;0.298;2023-02-12T16:17:21;18.75;;;10.48;;
22614;SDS011;11474;50.790;0.298;2023-02-12T16:19:54;17.80;;;9.68;;
22614;SDS011;11474;50.790;0.298;2023-02-12T16:22:22;18.75;;;9.13;;
22614;SDS011;11474;50.790;0.298;2023-02-12T16:24:50;18.05;;;9.00;;
22614;SDS011;11474;50.790;0.298;2023-02-12T16:29:46;17.13;;;9.65;;
22614;SDS011;11474;50.790;0.298;2023-02-12T16:35:02;17.13;;;9.18;;
22614;SDS011;11474;50.790;0.298;2023-02-12T16:42:20;24.27;;;11.82;;
22614;SDS011;11474;50.790;0.298;2023-02-12T16:44:51;23.80;;;12.65;;
22614;SDS011;11474;50.790;0.298;2023-02-12T16:47:20;21.07;;;10.87;;
22614;SDS011;11474;50.790;0.298;2023-02-12T16:50:13;19.35;;;10.93;;
22614;SDS011;11474;50.790;0.298;2023-02-12T16:52:37;16.58;;;8.75;;
22614;SDS011;11474;50.790;0.298;2023-02-12T16:55:04;15.60;;;8.50;;
22614;SDS011;11474;50.790;0.298;2023-02-12T16:57:31;16.23;;;8.70;;
22614;SDS011;11474;50.790;0.298;2023-02-12T16:59:57;17.52;;;9.60;;
22614;SDS011;11474;50.790;0.298;2023-02-12T17:02:23;20.80;;;10.55;;
22614;SDS011;11474;50.790;0.298;2023-02-12T17:04:49;21.02;;;11.93;;
22614;SDS011;11474;50.790;0.298;2023-02-12T17:07:17;19.52;;;10.95;;
22614;SDS011;11474;50.790;0.298;2023-02-12T17:09:43;15.82;;;8.77;;
22614;SDS011;11474;50.790;0.298;2023-02-12T17:12:09;15.73;;;8.88;;
22614;SDS011;11474;50.790;0.298;2023-02-12T17:14:35;17.83;;;8.55;;
22614;SDS011;11474;50.790;0.298;2023-02-12T17:17:01;15.27;;;8.35;;
22614;SDS011;11474;50.790;0.298;2023-02-12T17:19:27;16.92;;;8.63;;
22614;SDS011;11474;50.790;0.298;2023-02-12T17:21:53;17.52;;;8.80;;